sensor_id;sensor_type;location;lat;lon;timestamp;pressure;altitude;pressure_sealevel;temperature;humidity
22389;BME280;11362;48.102;11.620;2023-07-20T00:01:47;95087.19;;;26.52;37.58
22389;BME280;11362;48.102;11.620;2023-07-20T00:04:13;95081.63;;;26.52;37.93
22389;BME280;11362;48.102;11.620;2023-07-20T00:06:39;95081.63;;;26.52;37.99
22389;BME280;11362;48.102;11.620;2023-07-20T00:09:04;95082.38;;;26.53;37.61
22389;BME280;11362;48.102;11.620;2023-07-20T00:11:29;95080.38;;;26.53;37.85
22389;BME280;11362;48.102;11.620;2023-07-20T00:13:54;95082.81;;;26.51;37.80
22389;BME280;11362;48.102;11.620;2023-07-20T00:16:20;95075.22;;;26.52;37.61
22389;BME280;11362;48.102;11.620;2023-07-20T00:18:45;95072.44;;;26.52;37.79
22389;BME280;11362;48.102;11.620;2023-07-20T00:21:10;95074.44;;;26.51;37.55
22389;BME280;11362;48.102;11.620;2023-07-20T00:23:35;95068.88;;;26.51;37.49
22389;BME280;11362;48.102;11.620;2023-07-20T00:26:01;95080.03;;;26.51;37.80
22389;BME280;11362;48.102;11.620;2023-07-20T00:28:26;95081.22;;;26.50;37.59
22389;BME280;11362;48.102;11.620;2023-07-20T00:30:51;95078.44;;;26.50;37.82
22389;BME280;11362;48.102;11.620;2023-07-20T00:33:17;95084.00;;;26.50;37.65
22389;BME280;11362;48.102;11.620;2023-07-20T00:35:43;95096.75;;;26.51;37.20
22389;BME280;11362;48.102;11.620;2023-07-20T00:38:08;95096.75;;;26.51;37.58
22389;BME280;11362;48.102;11.620;2023-07-20T00:40:37;95103.06;;;26.52;37.33
22389;BME280;11362;48.102;11.620;2023-07-20T00:43:03;95103.91;;;26.52;37.44
22389;BME280;11362;48.102;11.620;2023-07-20T00:45:29;95110.25;;;26.53;37.23
22389;BME280;11362;48.102;11.620;2023-07-20T00:47:54;95095.88;;;26.54;37.49
22389;BME280;11362;48.102;11.620;2023-07-20T00:50:20;95100.66;;;26.54;37.39
22389;BME280;11362;48.102;11.620;2023-07-20T00:52:45;95097.44;;;26.55;37.33
22389;BME280;11362;48.102;11.620;2023-07-20T00:55:10;95099.00;;;26.56;37.30
22389;BME280;11362;48.102;11.620;2023-07-20T00:57:36;95096.66;;;26.55;37.63
22389;BME280;11362;48.102;11.620;2023-07-20T01:00:02;95096.66;;;26.55;37.69
22389;BME280;11362;48.102;11.620;2023-07-20T01:02:27;95107.03;;;26.54;37.44
22389;BME280;11362;48.102;11.620;2023-07-20T01:04:52;95109.38;;;26.56;37.44
22389;BME280;11362;48.102;11.620;2023-07-20T01:07:32;95107.03;;;26.54;37.25
22389;BME280;11362;48.102;11.620;2023-07-20T01:10:09;95102.25;;;26.55;37.53
22389;BME280;11362;48.102;11.620;2023-07-20T01:15:06;95097.09;;;26.53;37.47
22389;BME280;11362;48.102;11.620;2023-07-20T01:17:31;95094.31;;;26.53;37.94
22389;BME280;11362;48.102;11.620;2023-07-20T01:19:57;95090.75;;;26.53;37.63
22389;BME280;11362;48.102;11.620;2023-07-20T01:25:21;95095.88;;;26.54;38.00
22389;BME280;11362;48.102;11.620;2023-07-20T01:30:51;95099.47;;;26.55;37.91
22389;BME280;11362;48.102;11.620;2023-07-20T01:33:18;95089.88;;;26.56;38.06
22389;BME280;11362;48.102;11.620;2023-07-20T01:35:46;95083.06;;;26.57;37.83
22389;BME280;11362;48.102;11.620;2023-07-20T01:38:13;95098.22;;;26.56;38.17
22389;BME280;11362;48.102;11.620;2023-07-20T01:40:40;95087.09;;;26.56;37.88
22389;BME280;11362;48.102;11.620;2023-07-20T01:43:05;95091.09;;;26.55;38.12
22389;BME280;11362;48.102;11.620;2023-07-20T01:45:31;95095.88;;;26.54;37.96
22389;BME280;11362;48.102;11.620;2023-07-20T01:47:56;95101.44;;;26.54;38.05
22389;BME280;11362;48.102;11.620;2023-07-20T01:50:22;95093.09;;;26.54;38.29
22389;BME280;11362;48.102;11.620;2023-07-20T01:52:47;95096.66;;;26.55;38.01
22389;BME280;11362;48.102;11.620;2023-07-20T01:55:13;95096.66;;;26.55;38.00
22389;BME280;11362;48.102;11.620;2023-07-20T01:57:38;95103.81;;;26.56;38.00
22389;BME280;11362;48.102;11.620;2023-07-20T02:00:03;95101.03;;;26.56;38.00
22389;BME280;11362;48.102;11.620;2023-07-20T02:02:29;95100.22;;;26.55;38.23
22389;BME280;11362;48.102;11.620;2023-07-20T02:04:54;95098.66;;;26.54;38.23
22389;BME280;11362;48.102;11.620;2023-07-20T02:07:20;95108.59;;;26.55;38.42
22389;BME280;11362;48.102;11.620;2023-07-20T02:09:45;95107.44;;;26.53;37.96
22389;BME280;11362;48.102;11.620;2023-07-20T02:12:10;95104.25;;;26.54;38.27
22389;BME280;11362;48.102;11.620;2023-07-20T02:14:35;95105.03;;;26.55;38.37
22389;BME280;11362;48.102;11.620;2023-07-20T02:17:01;95110.59;;;26.55;38.43
22389;BME280;11362;48.102;11.620;2023-07-20T02:19:26;95100.22;;;26.55;38.32
22389;BME280;11362;48.102;11.620;2023-07-20T02:21:51;95103.44;;;26.54;38.07
22389;BME280;11362;48.102;11.620;2023-07-20T02:24:17;95107.03;;;26.54;38.18
22389;BME280;11362;48.102;11.620;2023-07-20T02:26:42;95099.88;;;26.53;37.91
22389;BME280;11362;48.102;11.620;2023-07-20T02:29:07;95097.88;;;26.54;38.22
22389;BME280;11362;48.102;11.620;2023-07-20T02:31:33;95105.47;;;26.53;38.30
22389;BME280;11362;48.102;11.620;2023-07-20T02:33:58;95114.22;;;26.52;37.88
22389;BME280;11362;48.102;11.620;2023-07-20T02:36:23;95096.75;;;26.51;38.22
22389;BME280;11362;48.102;11.620;2023-07-20T02:38:49;95092.75;;;26.52;38.22
22389;BME280;11362;48.102;11.620;2023-07-20T02:41:14;95097.50;;;26.52;38.07
22389;BME280;11362;48.102;11.620;2023-07-20T02:43:39;95092.75;;;26.52;38.19
22389;BME280;11362;48.102;11.620;2023-07-20T02:46:04;95098.34;;;26.52;38.04
22389;BME280;11362;48.102;11.620;2023-07-20T02:48:30;95091.16;;;26.51;37.77
22389;BME280;11362;48.102;11.620;2023-07-20T02:50:55;95095.94;;;26.51;37.81
22389;BME280;11362;48.102;11.620;2023-07-20T02:53:20;95103.91;;;26.52;37.67
22389;BME280;11362;48.102;11.620;2023-07-20T02:55:46;95107.09;;;26.51;37.83
22389;BME280;11362;48.102;11.620;2023-07-20T02:58:11;95123.00;;;26.50;37.69
22389;BME280;11362;48.102;11.620;2023-07-20T03:00:36;95129.38;;;26.51;37.54
22389;BME280;11362;48.102;11.620;2023-07-20T03:03:01;95138.97;;;26.50;38.16
22389;BME280;11362;48.102;11.620;2023-07-20T03:05:27;95149.31;;;26.49;37.69
22389;BME280;11362;48.102;11.620;2023-07-20T03:07:52;95131.03;;;26.48;37.79
22389;BME280;11362;48.102;11.620;2023-07-20T03:10:17;95119.56;;;26.46;37.82
22389;BME280;11362;48.102;11.620;2023-07-20T03:12:42;95136.28;;;26.46;37.77
22389;BME280;11362;48.102;11.620;2023-07-20T03:15:08;95145.84;;;26.45;37.95
22389;BME280;11362;48.102;11.620;2023-07-20T03:17:34;95143.06;;;26.45;38.01
22389;BME280;11362;48.102;11.620;2023-07-20T03:19:59;95143.81;;;26.46;37.89
22389;BME280;11362;48.102;11.620;2023-07-20T03:22:25;95139.81;;;26.47;37.76
22389;BME280;11362;48.102;11.620;2023-07-20T03:24:50;95143.06;;;26.45;37.76
22389;BME280;11362;48.102;11.620;2023-07-20T03:27:15;95143.06;;;26.45;38.08
22389;BME280;11362;48.102;11.620;2023-07-20T03:29:41;95143.06;;;26.45;37.85
22389;BME280;11362;48.102;11.620;2023-07-20T03:32:06;95168.13;;;26.45;38.07
22389;BME280;11362;48.102;11.620;2023-07-20T03:34:31;95177.25;;;26.46;38.13
22389;BME280;11362;48.102;11.620;2023-07-20T03:36:57;95170.13;;;26.45;38.39
22389;BME280;11362;48.102;11.620;2023-07-20T03:39:22;95154.28;;;26.42;38.32
22389;BME280;11362;48.102;11.620;2023-07-20T03:41:48;95165.44;;;26.42;38.47
22389;BME280;11362;48.102;11.620;2023-07-20T03:44:13;95163.00;;;26.44;38.68
22389;BME280;11362;48.102;11.620;2023-07-20T03:46:38;95174.94;;;26.44;38.35
22389;BME280;11362;48.102;11.620;2023-07-20T03:49:03;95167.75;;;26.43;38.51
22389;BME280;11362;48.102;11.620;2023-07-20T03:51:29;95167.00;;;26.43;38.53
22389;BME280;11362;48.102;11.620;2023-07-20T03:53:54;95156.28;;;26.41;38.93
22389;BME280;11362;48.102;11.620;2023-07-20T03:56:19;95158.97;;;26.45;38.59
22389;BME280;11362;48.102;11.620;2023-07-20T03:58:45;95168.13;;;26.45;38.69
22389;BME280;11362;48.102;11.620;2023-07-20T04:01:10;95163.78;;;26.44;39.04
22389;BME280;11362;48.102;11.620;2023-07-20T04:03:35;95175.69;;;26.45;38.81
22389;BME280;11362;48.102;11.620;2023-07-20T04:06:01;95179.28;;;26.45;38.88
22389;BME280;11362;48.102;11.620;2023-07-20T04:08:26;95177.25;;;26.46;39.20
22389;BME280;11362;48.102;11.620;2023-07-20T04:10:51;95176.50;;;26.45;39.37
22389;BME280;11362;48.102;11.620;2023-07-20T04:13:17;95184.47;;;26.43;38.93
22389;BME280;11362;48.102;11.620;2023-07-20T04:15:42;95181.25;;;26.45;39.30
22389;BME280;11362;48.102;11.620;2023-07-20T04:18:07;95169.34;;;26.44;39.14
22389;BME280;11362;48.102;11.620;2023-07-20T04:20:33;95166.56;;;26.44;39.39
22389;BME280;11362;48.102;11.620;2023-07-20T04:22:58;95171.34;;;26.44;39.27
22389;BME280;11362;48.102;11.620;2023-07-20T04:25:23;95175.34;;;26.43;39.12
22389;BME280;11362;48.102;11.620;2023-07-20T04:27:49;95173.34;;;26.43;39.55
22389;BME280;11362;48.102;11.620;2023-07-20T04:30:16;95177.34;;;26.42;39.63
22389;BME280;11362;48.102;11.620;2023-07-20T04:32:42;95177.34;;;26.42;39.47
22389;BME280;11362;48.102;11.620;2023-07-20T04:35:07;95170.56;;;26.43;39.59
22389;BME280;11362;48.102;11.620;2023-07-20T04:37:33;95178.91;;;26.43;39.36
22389;BME280;11362;48.102;11.620;2023-07-20T04:39:58;95180.13;;;26.42;39.46
22389;BME280;11362;48.102;11.620;2023-07-20T04:42:23;95186.50;;;26.43;39.53
22389;BME280;11362;48.102;11.620;2023-07-20T04:44:49;95182.91;;;26.42;39.49
22389;BME280;11362;48.102;11.620;2023-07-20T04:47:14;95182.91;;;26.42;39.65
22389;BME280;11362;48.102;11.620;2023-07-20T04:49:39;95184.94;;;26.42;39.84
22389;BME280;11362;48.102;11.620;2023-07-20T04:52:05;95183.38;;;26.41;39.84
22389;BME280;11362;48.102;11.620;2023-07-20T04:54:30;95184.13;;;26.41;39.65
22389;BME280;11362;48.102;11.620;2023-07-20T04:56:55;95190.94;;;26.40;39.48
22389;BME280;11362;48.102;11.620;2023-07-20T04:59:20;95180.59;;;26.41;39.71
22389;BME280;11362;48.102;11.620;2023-07-20T05:01:46;95183.47;;;26.37;39.85
22389;BME280;11362;48.102;11.620;2023-07-20T05:04:11;95189.13;;;26.34;39.81
22389;BME280;11362;48.102;11.620;2023-07-20T05:06:36;95190.78;;;26.31;40.02
22389;BME280;11362;48.102;11.620;2023-07-20T05:09:02;95197.56;;;26.30;39.85
22389;BME280;11362;48.102;11.620;2023-07-20T05:11:27;95196.78;;;26.30;39.90
22389;BME280;11362;48.102;11.620;2023-07-20T05:13:52;95199.81;;;26.35;40.41
22389;BME280;11362;48.102;11.620;2023-07-20T05:16:17;95204.53;;;26.38;40.12
22389;BME280;11362;48.102;11.620;2023-07-20T05:18:43;95198.88;;;26.42;40.24
22389;BME280;11362;48.102;11.620;2023-07-20T05:21:08;95198.50;;;26.40;40.20
22389;BME280;11362;48.102;11.620;2023-07-20T05:23:33;95203.06;;;26.34;40.48
22389;BME280;11362;48.102;11.620;2023-07-20T05:25:59;95203.81;;;26.34;40.61
22389;BME280;11362;48.102;11.620;2023-07-20T05:28:25;95198.25;;;26.34;40.51
22389;BME280;11362;48.102;11.620;2023-07-20T05:30:51;95199.03;;;26.35;40.74
22389;BME280;11362;48.102;11.620;2023-07-20T05:33:17;95192.69;;;26.34;40.78
22389;BME280;11362;48.102;11.620;2023-07-20T05:35:42;95192.34;;;26.32;40.49
22389;BME280;11362;48.102;11.620;2023-07-20T05:38:07;95193.66;;;26.28;40.44
22389;BME280;11362;48.102;11.620;2023-07-20T05:40:32;95197.03;;;26.19;40.61
22389;BME280;11362;48.102;11.620;2023-07-20T05:42:58;95204.25;;;26.17;40.46
22389;BME280;11362;48.102;11.620;2023-07-20T05:45:23;95197.13;;;26.16;40.60
22389;BME280;11362;48.102;11.620;2023-07-20T05:47:48;95199.50;;;26.17;40.67
22389;BME280;11362;48.102;11.620;2023-07-20T05:50:14;95198.78;;;26.13;40.57
22389;BME280;11362;48.102;11.620;2023-07-20T05:52:40;95201.56;;;26.13;40.32
22389;BME280;11362;48.102;11.620;2023-07-20T05:55:06;95203.31;;;26.07;40.57
22389;BME280;11362;48.102;11.620;2023-07-20T05:57:32;95209.50;;;25.99;40.53
22389;BME280;11362;48.102;11.620;2023-07-20T05:59:57;95208.69;;;25.98;40.66
22389;BME280;11362;48.102;11.620;2023-07-20T06:02:22;95203.44;;;25.84;40.55
22389;BME280;11362;48.102;11.620;2023-07-20T06:04:47;95205.41;;;25.68;40.75
22389;BME280;11362;48.102;11.620;2023-07-20T06:07:13;95202.84;;;25.77;40.30
22389;BME280;11362;48.102;11.620;2023-07-20T06:09:38;95213.97;;;25.77;39.97
22389;BME280;11362;48.102;11.620;2023-07-20T06:12:04;95208.28;;;25.64;39.62
22389;BME280;11362;48.102;11.620;2023-07-20T06:14:29;95206.28;;;25.65;38.85
22389;BME280;11362;48.102;11.620;2023-07-20T06:16:54;95219.59;;;25.57;38.96
22389;BME280;11362;48.102;11.620;2023-07-20T06:19:20;95216.00;;;25.57;38.78
22389;BME280;11362;48.102;11.620;2023-07-20T06:21:45;95209.50;;;25.63;38.56
22389;BME280;11362;48.102;11.620;2023-07-20T06:24:10;95214.03;;;25.73;39.24
22389;BME280;11362;48.102;11.620;2023-07-20T06:26:36;95207.44;;;25.83;39.39
22389;BME280;11362;48.102;11.620;2023-07-20T06:29:01;95215.31;;;25.88;39.38
22389;BME280;11362;48.102;11.620;2023-07-20T06:31:26;95213.13;;;25.96;39.54
22389;BME280;11362;48.102;11.620;2023-07-20T06:33:51;95216.53;;;26.03;39.38
22389;BME280;11362;48.102;11.620;2023-07-20T06:36:17;95219.66;;;26.05;39.78
22389;BME280;11362;48.102;11.620;2023-07-20T06:38:43;95213.25;;;26.08;39.43
22389;BME280;11362;48.102;11.620;2023-07-20T06:41:08;95203.22;;;26.11;39.72
22389;BME280;11362;48.102;11.620;2023-07-20T06:43:33;95204.00;;;26.11;39.75
22389;BME280;11362;48.102;11.620;2023-07-20T06:45:58;95208.00;;;26.10;39.84
22389;BME280;11362;48.102;11.620;2023-07-20T06:48:24;95203.59;;;26.13;39.78
22389;BME280;11362;48.102;11.620;2023-07-20T06:50:49;95202.78;;;26.12;40.07
22389;BME280;11362;48.102;11.620;2023-07-20T06:53:14;95199.44;;;25.85;40.01
22389;BME280;11362;48.102;11.620;2023-07-20T06:55:42;95202.38;;;25.78;40.16
22389;BME280;11362;48.102;11.620;2023-07-20T06:58:07;95212.34;;;25.60;40.09
22389;BME280;11362;48.102;11.620;2023-07-20T07:00:33;95216.69;;;25.25;40.57
22389;BME280;11362;48.102;11.620;2023-07-20T07:02:58;95209.75;;;25.33;39.85
22389;BME280;11362;48.102;11.620;2023-07-20T07:05:23;95211.19;;;25.41;39.62
22389;BME280;11362;48.102;11.620;2023-07-20T07:07:48;95203.63;;;25.42;38.58
22389;BME280;11362;48.102;11.620;2023-07-20T07:10:14;95197.44;;;25.34;37.82
22389;BME280;11362;48.102;11.620;2023-07-20T07:12:39;95204.84;;;25.21;37.46
22389;BME280;11362;48.102;11.620;2023-07-20T07:15:05;95209.63;;;25.40;37.70
22389;BME280;11362;48.102;11.620;2023-07-20T07:17:30;95214.88;;;25.54;37.30
22389;BME280;11362;48.102;11.620;2023-07-20T07:19:55;95206.72;;;25.63;37.03
22389;BME280;11362;48.102;11.620;2023-07-20T07:22:20;95212.28;;;25.63;36.88
22389;BME280;11362;48.102;11.620;2023-07-20T07:24:46;95211.06;;;25.64;36.97
22389;BME280;11362;48.102;11.620;2023-07-20T07:27:11;95206.19;;;25.68;36.93
22389;BME280;11362;48.102;11.620;2023-07-20T07:29:36;95220.84;;;25.72;37.21
22389;BME280;11362;48.102;11.620;2023-07-20T07:32:02;95201.28;;;25.76;36.88
22389;BME280;11362;48.102;11.620;2023-07-20T07:34:27;95221.19;;;25.74;36.45
22389;BME280;11362;48.102;11.620;2023-07-20T07:36:53;95215.94;;;25.76;36.29
22389;BME280;11362;48.102;11.620;2023-07-20T07:39:19;95224.28;;;25.76;36.22
22389;BME280;11362;48.102;11.620;2023-07-20T07:41:44;95214.81;;;25.74;35.90
22389;BME280;11362;48.102;11.620;2023-07-20T07:44:10;95214.03;;;25.73;35.72
22389;BME280;11362;48.102;11.620;2023-07-20T07:46:35;95214.72;;;25.77;35.85
22389;BME280;11362;48.102;11.620;2023-07-20T07:49:00;95209.16;;;25.77;35.37
22389;BME280;11362;48.102;11.620;2023-07-20T07:51:26;95203.88;;;25.83;35.26
22389;BME280;11362;48.102;11.620;2023-07-20T07:53:51;95213.34;;;25.85;35.08
22389;BME280;11362;48.102;11.620;2023-07-20T07:56:16;95210.56;;;25.85;35.16
22389;BME280;11362;48.102;11.620;2023-07-20T07:58:42;95210.56;;;25.85;35.15
22389;BME280;11362;48.102;11.620;2023-07-20T08:01:07;95219.28;;;25.87;35.17
22389;BME280;11362;48.102;11.620;2023-07-20T08:03:32;95212.53;;;25.88;35.28
22389;BME280;11362;48.102;11.620;2023-07-20T08:05:58;95218.84;;;25.89;35.00
22389;BME280;11362;48.102;11.620;2023-07-20T08:08:24;95220.94;;;25.85;34.75
22389;BME280;11362;48.102;11.620;2023-07-20T08:10:50;95211.34;;;25.86;35.12
22389;BME280;11362;48.102;11.620;2023-07-20T08:13:17;95218.56;;;25.83;34.75
22389;BME280;11362;48.102;11.620;2023-07-20T08:15:49;95222.06;;;25.87;35.12
22389;BME280;11362;48.102;11.620;2023-07-20T08:18:15;95220.50;;;25.86;34.76
22389;BME280;11362;48.102;11.620;2023-07-20T08:20:43;95220.50;;;25.86;34.95
22389;BME280;11362;48.102;11.620;2023-07-20T08:23:09;95219.16;;;25.94;35.26
22389;BME280;11362;48.102;11.620;2023-07-20T08:25:36;95217.94;;;25.95;35.38
22389;BME280;11362;48.102;11.620;2023-07-20T08:28:01;95216.38;;;25.94;35.50
22389;BME280;11362;48.102;11.620;2023-07-20T08:30:42;95219.84;;;25.98;35.66
22389;BME280;11362;48.102;11.620;2023-07-20T08:33:07;95216.72;;;25.96;35.73
22389;BME280;11362;48.102;11.620;2023-07-20T08:35:33;95227.13;;;25.92;35.65
22389;BME280;11362;48.102;11.620;2023-07-20T08:37:58;95229.91;;;25.92;35.68
22389;BME280;11362;48.102;11.620;2023-07-20T08:40:24;95224.34;;;25.92;35.52
22389;BME280;11362;48.102;11.620;2023-07-20T08:42:50;95223.13;;;25.93;35.51
22389;BME280;11362;48.102;11.620;2023-07-20T08:45:16;95230.63;;;25.96;35.14
22389;BME280;11362;48.102;11.620;2023-07-20T08:47:43;95223.13;;;25.93;35.22
22389;BME280;11362;48.102;11.620;2023-07-20T08:50:10;95218.34;;;25.94;34.94
22389;BME280;11362;48.102;11.620;2023-07-20T08:52:36;95222.28;;;25.96;34.79
22389;BME280;11362;48.102;11.620;2023-07-20T08:55:02;95213.66;;;25.91;34.92
22389;BME280;11362;48.102;11.620;2023-07-20T08:57:27;95222.34;;;25.93;34.92
22389;BME280;11362;48.102;11.620;2023-07-20T08:59:53;95219.50;;;25.96;34.90
22389;BME280;11362;48.102;11.620;2023-07-20T09:02:20;95225.81;;;25.97;34.81
22389;BME280;11362;48.102;11.620;2023-07-20T09:04:49;95221.41;;;25.99;35.08
22389;BME280;11362;48.102;11.620;2023-07-20T09:07:15;95226.97;;;25.99;35.04
22389;BME280;11362;48.102;11.620;2023-07-20T09:09:40;95224.53;;;26.01;34.66
22389;BME280;11362;48.102;11.620;2023-07-20T09:12:13;95215.66;;;26.06;34.84
22389;BME280;11362;48.102;11.620;2023-07-20T09:14:38;95220.81;;;26.08;34.68
22389;BME280;11362;48.102;11.620;2023-07-20T09:17:04;95213.66;;;26.07;34.92
22389;BME280;11362;48.102;11.620;2023-07-20T09:19:29;95207.75;;;26.05;35.09
22389;BME280;11362;48.102;11.620;2023-07-20T09:21:54;95197.38;;;26.05;35.04
22389;BME280;11362;48.102;11.620;2023-07-20T09:24:20;95194.94;;;26.07;34.81
22389;BME280;11362;48.102;11.620;2023-07-20T09:26:47;95200.88;;;26.09;34.46
22389;BME280;11362;48.102;11.620;2023-07-20T09:29:12;95203.66;;;26.09;34.62
22389;BME280;11362;48.102;11.620;2023-07-20T09:31:38;95199.03;;;26.03;34.79
22389;BME280;11362;48.102;11.620;2023-07-20T09:34:04;95199.84;;;26.03;34.68
22389;BME280;11362;48.102;11.620;2023-07-20T09:36:33;95197.38;;;26.05;34.96
22389;BME280;11362;48.102;11.620;2023-07-20T09:38:59;95194.94;;;26.07;35.06
22389;BME280;11362;48.102;11.620;2023-07-20T09:41:24;95197.66;;;26.11;35.01
22389;BME280;11362;48.102;11.620;2023-07-20T09:43:49;95202.03;;;26.12;34.62
22389;BME280;11362;48.102;11.620;2023-07-20T09:46:15;95196.44;;;26.12;34.87
22389;BME280;11362;48.102;11.620;2023-07-20T09:48:40;95202.78;;;26.12;34.34
22389;BME280;11362;48.102;11.620;2023-07-20T09:51:07;95194.94;;;26.07;34.55
22389;BME280;11362;48.102;11.620;2023-07-20T09:53:33;95196.53;;;26.08;34.62
22389;BME280;11362;48.102;11.620;2023-07-20T09:55:59;95194.44;;;26.12;34.26
22389;BME280;11362;48.102;11.620;2023-07-20T09:58:26;95187.66;;;26.13;34.45
22389;BME280;11362;48.102;11.620;2023-07-20T10:00:54;95182.06;;;26.13;34.16
22389;BME280;11362;48.102;11.620;2023-07-20T10:03:22;95190.19;;;26.08;33.81
22389;BME280;11362;48.102;11.620;2023-07-20T10:06:02;95195.13;;;26.00;33.85
22389;BME280;11362;48.102;11.620;2023-07-20T10:08:30;95190.19;;;25.92;33.44
22389;BME280;11362;48.102;11.620;2023-07-20T10:10:58;95188.97;;;25.93;33.37
22389;BME280;11362;48.102;11.620;2023-07-20T10:13:29;95190.19;;;25.92;33.55
22389;BME280;11362;48.102;11.620;2023-07-20T10:16:01;95183.41;;;25.93;33.82
22389;BME280;11362;48.102;11.620;2023-07-20T10:18:29;95189.22;;;25.98;33.66
22389;BME280;11362;48.102;11.620;2023-07-20T10:20:56;95192.00;;;25.98;33.61
22389;BME280;11362;48.102;11.620;2023-07-20T10:23:23;95181.28;;;25.97;33.74
22389;BME280;11362;48.102;11.620;2023-07-20T10:25:48;95177.91;;;26.05;33.84
22389;BME280;11362;48.102;11.620;2023-07-20T10:28:14;95178.16;;;26.11;34.03
22389;BME280;11362;48.102;11.620;2023-07-20T10:30:41;95182.63;;;26.08;34.23
22389;BME280;11362;48.102;11.620;2023-07-20T10:33:08;95181.22;;;26.16;34.42
22389;BME280;11362;48.102;11.620;2023-07-20T10:35:57;95176.41;;;26.17;34.18
22389;BME280;11362;48.102;11.620;2023-07-20T10:38:42;95173.38;;;26.11;34.13
22389;BME280;11362;48.102;11.620;2023-07-20T10:41:31;95161.38;;;26.14;34.36
22389;BME280;11362;48.102;11.620;2023-07-20T10:44:04;95166.00;;;26.05;33.65
22389;BME280;11362;48.102;11.620;2023-07-20T10:46:43;95164.88;;;26.02;33.94
22389;BME280;11362;48.102;11.620;2023-07-20T10:49:09;95155.78;;;26.14;34.27
22389;BME280;11362;48.102;11.620;2023-07-20T10:51:42;95161.88;;;26.25;34.44
22389;BME280;11362;48.102;11.620;2023-07-20T10:54:52;95157.00;;;26.29;33.95
22389;BME280;11362;48.102;11.620;2023-07-20T10:56:55;95160.06;;;26.35;34.13
22389;BME280;11362;48.102;11.620;2023-07-20T11:01:49;95159.59;;;26.36;34.90
22389;BME280;11362;48.102;11.620;2023-07-20T11:04:15;95155.25;;;26.35;34.67
22389;BME280;11362;48.102;11.620;2023-07-20T11:06:44;95161.63;;;26.36;35.02
22389;BME280;11362;48.102;11.620;2023-07-20T11:09:11;95154.03;;;26.36;34.85
22389;BME280;11362;48.102;11.620;2023-07-20T11:11:39;95143.16;;;26.42;35.27
22389;BME280;11362;48.102;11.620;2023-07-20T11:14:25;95143.59;;;26.40;35.14
22389;BME280;11362;48.102;11.620;2023-07-20T11:16:52;95145.94;;;26.42;35.13
22389;BME280;11362;48.102;11.620;2023-07-20T11:19:19;95145.16;;;26.41;35.37
22389;BME280;11362;48.102;11.620;2023-07-20T11:21:47;95139.91;;;26.43;35.50
22389;BME280;11362;48.102;11.620;2023-07-20T11:24:14;95136.28;;;26.46;35.34
22389;BME280;11362;48.102;11.620;2023-07-20T11:26:44;95135.94;;;26.44;35.18
22389;BME280;11362;48.102;11.620;2023-07-20T11:29:10;95140.56;;;26.35;34.47
22389;BME280;11362;48.102;11.620;2023-07-20T11:31:37;95139.44;;;26.32;34.80
22389;BME280;11362;48.102;11.620;2023-07-20T11:34:03;95140.91;;;26.37;34.65
22389;BME280;11362;48.102;11.620;2023-07-20T11:36:29;95129.66;;;26.40;35.04
22389;BME280;11362;48.102;11.620;2023-07-20T11:38:54;95127.22;;;26.42;35.15
22389;BME280;11362;48.102;11.620;2023-07-20T11:41:19;95132.00;;;26.42;35.35
22389;BME280;11362;48.102;11.620;2023-07-20T11:43:45;95133.16;;;26.44;35.63
22389;BME280;11362;48.102;11.620;2023-07-20T11:46:11;95131.91;;;26.45;35.48
22389;BME280;11362;48.102;11.620;2023-07-20T11:48:36;95127.91;;;26.46;35.68
22389;BME280;11362;48.102;11.620;2023-07-20T11:51:01;95128.25;;;26.48;35.51
22389;BME280;11362;48.102;11.620;2023-07-20T11:53:27;95126.69;;;26.47;35.54
22389;BME280;11362;48.102;11.620;2023-07-20T11:55:52;95122.25;;;26.50;35.64
22389;BME280;11362;48.102;11.620;2023-07-20T11:58:18;95105.88;;;26.52;35.82
22389;BME280;11362;48.102;11.620;2023-07-20T12:00:44;95111.88;;;26.50;35.64
22389;BME280;11362;48.102;11.620;2023-07-20T12:03:10;95114.22;;;26.52;35.38
22389;BME280;11362;48.102;11.620;2023-07-20T12:05:36;95111.88;;;26.50;35.06
22389;BME280;11362;48.102;11.620;2023-07-20T12:08:01;95105.09;;;26.51;34.70
22389;BME280;11362;48.102;11.620;2023-07-20T12:10:28;95101.13;;;26.52;34.97
22389;BME280;11362;48.102;11.620;2023-07-20T12:12:54;95090.75;;;26.53;35.05
22389;BME280;11362;48.102;11.620;2023-07-20T12:15:21;95097.09;;;26.53;34.97
22389;BME280;11362;48.102;11.620;2023-07-20T12:17:55;95087.94;;;26.53;34.94
22389;BME280;11362;48.102;11.620;2023-07-20T12:20:37;95094.72;;;26.52;34.75
22389;BME280;11362;48.102;11.620;2023-07-20T12:23:10;95099.09;;;26.53;34.97
22389;BME280;11362;48.102;11.620;2023-07-20T12:25:40;95089.97;;;26.52;35.04
22389;BME280;11362;48.102;11.620;2023-07-20T12:28:13;95075.16;;;26.55;34.94
22389;BME280;11362;48.102;11.620;2023-07-20T12:30:39;95076.38;;;26.54;34.76
22389;BME280;11362;48.102;11.620;2023-07-20T12:33:05;95059.66;;;26.54;34.85
22389;BME280;11362;48.102;11.620;2023-07-20T12:35:31;95076.72;;;26.56;34.80
22389;BME280;11362;48.102;11.620;2023-07-20T12:37:57;95067.91;;;26.58;34.75
22389;BME280;11362;48.102;11.620;2023-07-20T12:40:22;95061.56;;;26.57;34.65
22389;BME280;11362;48.102;11.620;2023-07-20T12:42:48;95067.13;;;26.57;34.66
22389;BME280;11362;48.102;11.620;2023-07-20T12:45:13;95075.94;;;26.56;34.93
22389;BME280;11362;48.102;11.620;2023-07-20T12:47:39;95060.88;;;26.53;34.64
22389;BME280;11362;48.102;11.620;2023-07-20T12:50:05;95060.00;;;26.56;34.82
22389;BME280;11362;48.102;11.620;2023-07-20T12:52:30;95048.84;;;26.56;34.63
22389;BME280;11362;48.102;11.620;2023-07-20T12:54:56;95054.41;;;26.56;34.90
22389;BME280;11362;48.102;11.620;2023-07-20T12:57:21;95047.63;;;26.57;34.59